sensor_id;sensor_type;location;lat;lon;timestamp;P1;durP1;ratioP1;P2;durP2;ratioP2
22284;SDS011;11311;52.192;20.900;2023-03-14T00:01:24;10.30;;;5.35;;
22284;SDS011;11311;52.192;20.900;2023-03-14T00:03:53;12.15;;;5.85;;
22284;SDS011;11311;52.192;20.900;2023-03-14T00:06:22;8.60;;;4.68;;
22284;SDS011;11311;52.192;20.900;2023-03-14T00:08:52;10.35;;;5.22;;
22284;SDS011;11311;52.192;20.900;2023-03-14T00:13:50;9.07;;;4.70;;
22284;SDS011;11311;52.192;20.900;2023-03-14T00:16:19;13.07;;;7.00;;
22284;SDS011;11311;52.192;20.900;2023-03-14T00:18:48;10.00;;;6.15;;
22284;SDS011;11311;52.192;20.900;2023-03-14T00:21:17;17.80;;;6.85;;
22284;SDS011;11311;52.192;20.900;2023-03-14T00:23:47;7.93;;;5.30;;
22284;SDS011;11311;52.192;20.900;2023-03-14T00:26:18;14.38;;;7.22;;
22284;SDS011;11311;52.192;20.900;2023-03-14T00:28:50;12.45;;;6.18;;
22284;SDS011;11311;52.192;20.900;2023-03-14T00:31:20;15.85;;;8.15;;
22284;SDS011;11311;52.192;20.900;2023-03-14T00:33:50;9.68;;;5.28;;
22284;SDS011;11311;52.192;20.900;2023-03-14T00:36:20;13.95;;;6.60;;
22284;SDS011;11311;52.192;20.900;2023-03-14T00:38:50;15.17;;;7.77;;
22284;SDS011;11311;52.192;20.900;2023-03-14T00:41:21;11.30;;;6.90;;
22284;SDS011;11311;52.192;20.900;2023-03-14T00:43:51;12.30;;;7.90;;
22284;SDS011;11311;52.192;20.900;2023-03-14T00:46:20;18.98;;;7.95;;
22284;SDS011;11311;52.192;20.900;2023-03-14T00:48:49;9.95;;;6.78;;
22284;SDS011;11311;52.192;20.900;2023-03-14T00:51:18;11.13;;;8.25;;
22284;SDS011;11311;52.192;20.900;2023-03-14T00:53:47;13.85;;;8.90;;
22284;SDS011;11311;52.192;20.900;2023-03-14T00:56:16;10.27;;;6.45;;
22284;SDS011;11311;52.192;20.900;2023-03-14T00:58:46;10.32;;;6.28;;
22284;SDS011;11311;52.192;20.900;2023-03-14T01:01:15;15.00;;;8.02;;
22284;SDS011;11311;52.192;20.900;2023-03-14T01:03:45;13.82;;;6.95;;
22284;SDS011;11311;52.192;20.900;2023-03-14T01:06:16;14.45;;;8.02;;
22284;SDS011;11311;52.192;20.900;2023-03-14T01:08:46;10.20;;;5.68;;
22284;SDS011;11311;52.192;20.900;2023-03-14T01:11:17;12.43;;;7.50;;
22284;SDS011;11311;52.192;20.900;2023-03-14T01:13:48;13.82;;;6.22;;
22284;SDS011;11311;52.192;20.900;2023-03-14T01:16:18;13.05;;;6.63;;
22284;SDS011;11311;52.192;20.900;2023-03-14T01:18:48;8.32;;;5.20;;
22284;SDS011;11311;52.192;20.900;2023-03-14T01:21:18;9.00;;;4.70;;
22284;SDS011;11311;52.192;20.900;2023-03-14T01:23:48;9.90;;;5.47;;
22284;SDS011;11311;52.192;20.900;2023-03-14T01:26:20;9.93;;;6.13;;
22284;SDS011;11311;52.192;20.900;2023-03-14T01:28:52;10.35;;;6.38;;
22284;SDS011;11311;52.192;20.900;2023-03-14T01:31:22;10.18;;;7.05;;
22284;SDS011;11311;52.192;20.900;2023-03-14T01:33:52;15.93;;;8.57;;
22284;SDS011;11311;52.192;20.900;2023-03-14T01:36:21;8.88;;;6.05;;
22284;SDS011;11311;52.192;20.900;2023-03-14T01:38:50;10.13;;;4.57;;
22284;SDS011;11311;52.192;20.900;2023-03-14T01:41:19;8.85;;;5.13;;
22284;SDS011;11311;52.192;20.900;2023-03-14T01:43:53;12.27;;;8.90;;
22284;SDS011;11311;52.192;20.900;2023-03-14T01:46:28;9.52;;;6.18;;
22284;SDS011;11311;52.192;20.900;2023-03-14T01:49:01;11.10;;;6.72;;
22284;SDS011;11311;52.192;20.900;2023-03-14T01:51:35;14.77;;;9.10;;
22284;SDS011;11311;52.192;20.900;2023-03-14T01:54:08;8.38;;;5.50;;
22284;SDS011;11311;52.192;20.900;2023-03-14T01:56:40;16.45;;;7.43;;
22284;SDS011;11311;52.192;20.900;2023-03-14T01:59:11;11.37;;;6.47;;
22284;SDS011;11311;52.192;20.900;2023-03-14T02:01:41;13.90;;;8.82;;
22284;SDS011;11311;52.192;20.900;2023-03-14T02:04:12;12.52;;;7.13;;
22284;SDS011;11311;52.192;20.900;2023-03-14T02:06:45;16.83;;;8.65;;
22284;SDS011;11311;52.192;20.900;2023-03-14T02:09:19;14.82;;;8.05;;
22284;SDS011;11311;52.192;20.900;2023-03-14T02:11:49;15.32;;;6.55;;
22284;SDS011;11311;52.192;20.900;2023-03-14T02:14:43;13.00;;;8.40;;
22284;SDS011;11311;52.192;20.900;2023-03-14T02:17:22;14.10;;;8.23;;
22284;SDS011;11311;52.192;20.900;2023-03-14T02:20:14;13.90;;;7.07;;
22284;SDS011;11311;52.192;20.900;2023-03-14T02:22:54;11.60;;;7.45;;
22284;SDS011;11311;52.192;20.900;2023-03-14T02:25:27;11.90;;;5.38;;
22284;SDS011;11311;52.192;20.900;2023-03-14T02:28:02;8.80;;;5.05;;
22284;SDS011;11311;52.192;20.900;2023-03-14T02:30:33;15.80;;;9.05;;
22284;SDS011;11311;52.192;20.900;2023-03-14T02:35:33;13.13;;;6.65;;
22284;SDS011;11311;52.192;20.900;2023-03-14T02:38:08;10.27;;;5.30;;
22284;SDS011;11311;52.192;20.900;2023-03-14T02:40:43;12.23;;;6.45;;
22284;SDS011;11311;52.192;20.900;2023-03-14T02:43:13;12.10;;;7.22;;
22284;SDS011;11311;52.192;20.900;2023-03-14T02:45:48;15.18;;;9.07;;
22284;SDS011;11311;52.192;20.900;2023-03-14T02:48:21;13.02;;;6.00;;
22284;SDS011;11311;52.192;20.900;2023-03-14T02:50:53;13.15;;;7.38;;
22284;SDS011;11311;52.192;20.900;2023-03-14T02:53:24;11.82;;;7.32;;
22284;SDS011;11311;52.192;20.900;2023-03-14T02:55:56;12.25;;;7.75;;
22284;SDS011;11311;52.192;20.900;2023-03-14T02:58:27;10.40;;;7.00;;
22284;SDS011;11311;52.192;20.900;2023-03-14T03:01:05;11.68;;;8.30;;
22284;SDS011;11311;52.192;20.900;2023-03-14T03:03:35;15.85;;;7.30;;
22284;SDS011;11311;52.192;20.900;2023-03-14T03:06:05;10.20;;;6.40;;
22284;SDS011;11311;52.192;20.900;2023-03-14T03:08:34;12.80;;;7.43;;
22284;SDS011;11311;52.192;20.900;2023-03-14T03:11:03;9.85;;;6.97;;
22284;SDS011;11311;52.192;20.900;2023-03-14T03:13:35;13.30;;;7.22;;
22284;SDS011;11311;52.192;20.900;2023-03-14T03:16:05;11.30;;;5.70;;
22284;SDS011;11311;52.192;20.900;2023-03-14T03:18:35;14.32;;;6.60;;
22284;SDS011;11311;52.192;20.900;2023-03-14T03:21:04;10.63;;;4.80;;
22284;SDS011;11311;52.192;20.900;2023-03-14T03:23:35;12.70;;;7.05;;
22284;SDS011;11311;52.192;20.900;2023-03-14T03:26:05;13.27;;;7.77;;
22284;SDS011;11311;52.192;20.900;2023-03-14T03:28:35;11.57;;;7.30;;
22284;SDS011;11311;52.192;20.900;2023-03-14T03:31:08;5.70;;;3.70;;
22284;SDS011;11311;52.192;20.900;2023-03-14T03:33:38;9.82;;;5.30;;
22284;SDS011;11311;52.192;20.900;2023-03-14T03:36:08;8.70;;;5.87;;
22284;SDS011;11311;52.192;20.900;2023-03-14T03:38:39;9.15;;;6.68;;
22284;SDS011;11311;52.192;20.900;2023-03-14T03:41:09;9.93;;;6.55;;
22284;SDS011;11311;52.192;20.900;2023-03-14T03:43:39;9.17;;;5.30;;
22284;SDS011;11311;52.192;20.900;2023-03-14T03:46:14;12.23;;;7.03;;
22284;SDS011;11311;52.192;20.900;2023-03-14T03:48:43;8.07;;;5.78;;
22284;SDS011;11311;52.192;20.900;2023-03-14T03:51:12;10.15;;;5.05;;
22284;SDS011;11311;52.192;20.900;2023-03-14T03:53:42;11.23;;;5.83;;
22284;SDS011;11311;52.192;20.900;2023-03-14T03:56:15;7.00;;;4.68;;
22284;SDS011;11311;52.192;20.900;2023-03-14T03:58:45;12.70;;;6.60;;
22284;SDS011;11311;52.192;20.900;2023-03-14T04:01:14;7.28;;;5.65;;
22284;SDS011;11311;52.192;20.900;2023-03-14T04:03:47;12.02;;;6.38;;
22284;SDS011;11311;52.192;20.900;2023-03-14T04:06:17;6.68;;;3.83;;
22284;SDS011;11311;52.192;20.900;2023-03-14T04:08:48;7.20;;;4.13;;
22284;SDS011;11311;52.192;20.900;2023-03-14T04:11:43;8.90;;;6.10;;
22284;SDS011;11311;52.192;20.900;2023-03-14T04:14:20;10.48;;;6.00;;
22284;SDS011;11311;52.192;20.900;2023-03-14T04:16:58;11.45;;;5.95;;
22284;SDS011;11311;52.192;20.900;2023-03-14T04:19:27;9.73;;;5.38;;
22284;SDS011;11311;52.192;20.900;2023-03-14T04:21:56;12.18;;;6.53;;
22284;SDS011;11311;52.192;20.900;2023-03-14T04:24:30;7.00;;;5.15;;
22284;SDS011;11311;52.192;20.900;2023-03-14T04:26:59;8.93;;;5.47;;
22284;SDS011;11311;52.192;20.900;2023-03-14T04:29:29;11.27;;;6.57;;
22284;SDS011;11311;52.192;20.900;2023-03-14T04:31:59;8.63;;;5.72;;
22284;SDS011;11311;52.192;20.900;2023-03-14T04:34:28;12.52;;;5.40;;
22284;SDS011;11311;52.192;20.900;2023-03-14T04:36:57;13.60;;;7.37;;
22284;SDS011;11311;52.192;20.900;2023-03-14T04:39:33;10.73;;;5.55;;
22284;SDS011;11311;52.192;20.900;2023-03-14T04:42:09;9.05;;;5.53;;
22284;SDS011;11311;52.192;20.900;2023-03-14T04:44:40;9.63;;;4.93;;
22284;SDS011;11311;52.192;20.900;2023-03-14T04:47:12;6.60;;;3.95;;
22284;SDS011;11311;52.192;20.900;2023-03-14T04:52:13;8.10;;;4.55;;
22284;SDS011;11311;52.192;20.900;2023-03-14T04:54:42;7.78;;;3.40;;
22284;SDS011;11311;52.192;20.900;2023-03-14T04:57:11;5.50;;;3.70;;
22284;SDS011;11311;52.192;20.900;2023-03-14T04:59:42;6.68;;;5.00;;
22284;SDS011;11311;52.192;20.900;2023-03-14T05:02:31;8.65;;;4.80;;
22284;SDS011;11311;52.192;20.900;2023-03-14T05:05:15;8.95;;;5.20;;
22284;SDS011;11311;52.192;20.900;2023-03-14T05:08:07;14.95;;;6.60;;
22284;SDS011;11311;52.192;20.900;2023-03-14T05:10:59;10.25;;;5.18;;
22284;SDS011;11311;52.192;20.900;2023-03-14T05:13:55;9.40;;;5.25;;
22284;SDS011;11311;52.192;20.900;2023-03-14T05:17:04;5.47;;;4.22;;
22284;SDS011;11311;52.192;20.900;2023-03-14T05:19:56;7.22;;;4.70;;
22284;SDS011;11311;52.192;20.900;2023-03-14T05:22:34;7.05;;;5.15;;
22284;SDS011;11311;52.192;20.900;2023-03-14T05:25:16;14.90;;;3.35;;
22284;SDS011;11311;52.192;20.900;2023-03-14T05:28:11;5.55;;;3.45;;
22284;SDS011;11311;52.192;20.900;2023-03-14T05:30:53;5.72;;;3.35;;
22284;SDS011;11311;52.192;20.900;2023-03-14T05:33:44;13.43;;;4.93;;
22284;SDS011;11311;52.192;20.900;2023-03-14T05:36:33;13.38;;;6.30;;
22284;SDS011;11311;52.192;20.900;2023-03-14T05:39:21;10.57;;;4.63;;
22284;SDS011;11311;52.192;20.900;2023-03-14T05:41:53;7.10;;;4.65;;
22284;SDS011;11311;52.192;20.900;2023-03-14T05:44:43;11.23;;;5.63;;
22284;SDS011;11311;52.192;20.900;2023-03-14T05:47:29;7.43;;;4.30;;
22284;SDS011;11311;52.192;20.900;2023-03-14T05:50:15;7.50;;;5.47;;
22284;SDS011;11311;52.192;20.900;2023-03-14T05:53:13;5.78;;;3.67;;
22284;SDS011;11311;52.192;20.900;2023-03-14T05:55:42;7.50;;;5.07;;
22284;SDS011;11311;52.192;20.900;2023-03-14T05:58:19;7.25;;;6.15;;
22284;SDS011;11311;52.192;20.900;2023-03-14T06:00:48;8.30;;;4.78;;
22284;SDS011;11311;52.192;20.900;2023-03-14T06:03:38;7.68;;;3.95;;
22284;SDS011;11311;52.192;20.900;2023-03-14T06:06:10;13.60;;;5.70;;
22284;SDS011;11311;52.192;20.900;2023-03-14T06:11:09;9.48;;;5.53;;
22284;SDS011;11311;52.192;20.900;2023-03-14T06:13:38;9.05;;;4.88;;
22284;SDS011;11311;52.192;20.900;2023-03-14T06:16:08;6.43;;;5.25;;
22284;SDS011;11311;52.192;20.900;2023-03-14T06:18:37;7.88;;;3.97;;
22284;SDS011;11311;52.192;20.900;2023-03-14T06:21:09;9.77;;;4.63;;
22284;SDS011;11311;52.192;20.900;2023-03-14T06:23:39;7.60;;;4.43;;
22284;SDS011;11311;52.192;20.900;2023-03-14T06:26:08;13.68;;;3.08;;
22284;SDS011;11311;52.192;20.900;2023-03-14T06:28:38;5.65;;;4.10;;
22284;SDS011;11311;52.192;20.900;2023-03-14T06:31:08;7.45;;;3.10;;
22284;SDS011;11311;52.192;20.900;2023-03-14T06:33:46;10.15;;;4.72;;
22284;SDS011;11311;52.192;20.900;2023-03-14T06:36:17;10.38;;;6.22;;
22284;SDS011;11311;52.192;20.900;2023-03-14T06:38:47;8.55;;;5.53;;
22284;SDS011;11311;52.192;20.900;2023-03-14T06:41:16;6.80;;;5.27;;
22284;SDS011;11311;52.192;20.900;2023-03-14T06:43:47;12.07;;;6.03;;
22284;SDS011;11311;52.192;20.900;2023-03-14T06:46:17;9.20;;;4.88;;
22284;SDS011;11311;52.192;20.900;2023-03-14T06:48:47;6.45;;;4.90;;
22284;SDS011;11311;52.192;20.900;2023-03-14T06:51:17;7.47;;;4.15;;
22284;SDS011;11311;52.192;20.900;2023-03-14T06:53:48;8.60;;;5.07;;
22284;SDS011;11311;52.192;20.900;2023-03-14T06:56:20;6.28;;;4.13;;
22284;SDS011;11311;52.192;20.900;2023-03-14T06:58:48;6.95;;;4.60;;
22284;SDS011;11311;52.192;20.900;2023-03-14T07:01:20;8.95;;;4.18;;
22284;SDS011;11311;52.192;20.900;2023-03-14T07:03:53;6.53;;;4.03;;
22284;SDS011;11311;52.192;20.900;2023-03-14T07:06:24;7.15;;;3.88;;
22284;SDS011;11311;52.192;20.900;2023-03-14T07:08:53;8.70;;;4.25;;
22284;SDS011;11311;52.192;20.900;2023-03-14T07:11:23;6.38;;;4.35;;
22284;SDS011;11311;52.192;20.900;2023-03-14T07:13:52;15.63;;;5.20;;
22284;SDS011;11311;52.192;20.900;2023-03-14T07:16:21;7.88;;;3.67;;
22284;SDS011;11311;52.192;20.900;2023-03-14T07:18:51;5.57;;;4.05;;
22284;SDS011;11311;52.192;20.900;2023-03-14T07:21:20;7.70;;;5.25;;
22284;SDS011;11311;52.192;20.900;2023-03-14T07:23:50;6.13;;;3.70;;
22284;SDS011;11311;52.192;20.900;2023-03-14T07:28:50;8.80;;;5.18;;
22284;SDS011;11311;52.192;20.900;2023-03-14T07:31:21;15.02;;;6.88;;
22284;SDS011;11311;52.192;20.900;2023-03-14T07:33:51;7.95;;;4.78;;
22284;SDS011;11311;52.192;20.900;2023-03-14T07:36:22;8.77;;;5.18;;
22284;SDS011;11311;52.192;20.900;2023-03-14T07:38:52;11.98;;;5.40;;
22284;SDS011;11311;52.192;20.900;2023-03-14T07:41:36;10.68;;;5.57;;
22284;SDS011;11311;52.192;20.900;2023-03-14T07:44:23;12.70;;;5.45;;
22284;SDS011;11311;52.192;20.900;2023-03-14T07:46:53;7.97;;;5.20;;
22284;SDS011;11311;52.192;20.900;2023-03-14T07:49:22;7.63;;;5.20;;
22284;SDS011;11311;52.192;20.900;2023-03-14T07:51:51;5.30;;;4.53;;
22284;SDS011;11311;52.192;20.900;2023-03-14T07:54:22;7.32;;;3.75;;
22284;SDS011;11311;52.192;20.900;2023-03-14T07:56:51;6.63;;;3.90;;
22284;SDS011;11311;52.192;20.900;2023-03-14T07:59:20;8.20;;;4.68;;
22284;SDS011;11311;52.192;20.900;2023-03-14T08:01:49;8.15;;;4.55;;
22284;SDS011;11311;52.192;20.900;2023-03-14T08:04:18;8.02;;;4.22;;
22284;SDS011;11311;52.192;20.900;2023-03-14T08:06:47;5.70;;;3.78;;
22284;SDS011;11311;52.192;20.900;2023-03-14T08:09:16;5.90;;;3.78;;
22284;SDS011;11311;52.192;20.900;2023-03-14T08:11:46;4.78;;;2.38;;
22284;SDS011;11311;52.192;20.900;2023-03-14T08:16:43;8.27;;;4.55;;
22284;SDS011;11311;52.192;20.900;2023-03-14T08:19:12;9.05;;;3.75;;
22284;SDS011;11311;52.192;20.900;2023-03-14T08:21:41;5.47;;;3.28;;
22284;SDS011;11311;52.192;20.900;2023-03-14T08:24:10;4.82;;;3.20;;
22284;SDS011;11311;52.192;20.900;2023-03-14T08:26:39;7.45;;;4.55;;
22284;SDS011;11311;52.192;20.900;2023-03-14T08:29:09;7.32;;;3.40;;
22284;SDS011;11311;52.192;20.900;2023-03-14T08:31:39;7.22;;;3.10;;
22284;SDS011;11311;52.192;20.900;2023-03-14T08:34:08;5.53;;;3.72;;
22284;SDS011;11311;52.192;20.900;2023-03-14T08:36:38;7.75;;;3.88;;
22284;SDS011;11311;52.192;20.900;2023-03-14T08:39:07;6.75;;;3.22;;
22284;SDS011;11311;52.192;20.900;2023-03-14T08:41:36;8.43;;;4.07;;
22284;SDS011;11311;52.192;20.900;2023-03-14T08:44:10;5.07;;;3.58;;
22284;SDS011;11311;52.192;20.900;2023-03-14T08:46:39;4.97;;;3.80;;
22284;SDS011;11311;52.192;20.900;2023-03-14T08:49:08;9.20;;;4.45;;
22284;SDS011;11311;52.192;20.900;2023-03-14T08:51:38;13.60;;;3.45;;
22284;SDS011;11311;52.192;20.900;2023-03-14T08:54:09;7.90;;;3.80;;
22284;SDS011;11311;52.192;20.900;2023-03-14T08:56:39;4.82;;;3.40;;
22284;SDS011;11311;52.192;20.900;2023-03-14T08:59:09;9.48;;;3.72;;
22284;SDS011;11311;52.192;20.900;2023-03-14T09:04:07;11.05;;;4.15;;
22284;SDS011;11311;52.192;20.900;2023-03-14T09:06:36;13.17;;;3.97;;
22284;SDS011;11311;52.192;20.900;2023-03-14T09:09:05;6.18;;;3.92;;
22284;SDS011;11311;52.192;20.900;2023-03-14T09:11:36;6.05;;;3.90;;
22284;SDS011;11311;52.192;20.900;2023-03-14T09:14:05;4.65;;;3.53;;
22284;SDS011;11311;52.192;20.900;2023-03-14T09:16:35;5.10;;;3.72;;
22284;SDS011;11311;52.192;20.900;2023-03-14T09:19:04;8.18;;;4.07;;
22284;SDS011;11311;52.192;20.900;2023-03-14T09:21:32;7.38;;;3.85;;
22284;SDS011;11311;52.192;20.900;2023-03-14T09:24:02;10.35;;;4.07;;
22284;SDS011;11311;52.192;20.900;2023-03-14T09:26:31;3.83;;;2.95;;
22284;SDS011;11311;52.192;20.900;2023-03-14T09:29:00;8.38;;;4.68;;
22284;SDS011;11311;52.192;20.900;2023-03-14T09:31:29;9.50;;;3.25;;
22284;SDS011;11311;52.192;20.900;2023-03-14T09:33:59;6.10;;;4.07;;
22284;SDS011;11311;52.192;20.900;2023-03-14T09:38:57;5.13;;;3.35;;
22284;SDS011;11311;52.192;20.900;2023-03-14T09:41:26;2.95;;;2.10;;
22284;SDS011;11311;52.192;20.900;2023-03-14T09:44:00;4.65;;;3.63;;
22284;SDS011;11311;52.192;20.900;2023-03-14T09:46:31;9.63;;;3.83;;
22284;SDS011;11311;52.192;20.900;2023-03-14T09:49:02;6.88;;;3.28;;
22284;SDS011;11311;52.192;20.900;2023-03-14T09:51:38;7.15;;;3.67;;
22284;SDS011;11311;52.192;20.900;2023-03-14T09:54:08;5.97;;;4.10;;
22284;SDS011;11311;52.192;20.900;2023-03-14T09:56:46;4.95;;;2.63;;
22284;SDS011;11311;52.192;20.900;2023-03-14T09:59:15;10.20;;;4.18;;
22284;SDS011;11311;52.192;20.900;2023-03-14T10:01:44;3.58;;;2.72;;
22284;SDS011;11311;52.192;20.900;2023-03-14T10:04:15;8.23;;;3.95;;
22284;SDS011;11311;52.192;20.900;2023-03-14T10:06:47;6.10;;;3.45;;
22284;SDS011;11311;52.192;20.900;2023-03-14T10:09:17;7.90;;;2.67;;
22284;SDS011;11311;52.192;20.900;2023-03-14T10:11:53;11.68;;;3.58;;
22284;SDS011;11311;52.192;20.900;2023-03-14T10:14:32;6.65;;;3.17;;
22284;SDS011;11311;52.192;20.900;2023-03-14T10:17:05;5.93;;;2.88;;
22284;SDS011;11311;52.192;20.900;2023-03-14T10:19:38;6.15;;;3.45;;
22284;SDS011;11311;52.192;20.900;2023-03-14T10:22:19;7.68;;;3.50;;
22284;SDS011;11311;52.192;20.900;2023-03-14T10:24:51;6.83;;;3.33;;
22284;SDS011;11311;52.192;20.900;2023-03-14T10:27:21;6.35;;;3.53;;
22284;SDS011;11311;52.192;20.900;2023-03-14T10:29:56;8.57;;;3.13;;
22284;SDS011;11311;52.192;20.900;2023-03-14T10:35:06;6.38;;;3.50;;
22284;SDS011;11311;52.192;20.900;2023-03-14T10:37:50;7.43;;;3.70;;
22284;SDS011;11311;52.192;20.900;2023-03-14T10:40:23;8.30;;;4.18;;
22284;SDS011;11311;52.192;20.900;2023-03-14T10:42:54;8.07;;;3.53;;
22284;SDS011;11311;52.192;20.900;2023-03-14T10:48:20;7.43;;;4.05;;
22284;SDS011;11311;52.192;20.900;2023-03-14T10:50:56;5.17;;;3.47;;
22284;SDS011;11311;52.192;20.900;2023-03-14T10:53:25;10.52;;;3.40;;
22284;SDS011;11311;52.192;20.900;2023-03-14T10:55:55;6.72;;;3.55;;
22284;SDS011;11311;52.192;20.900;2023-03-14T10:58:24;10.20;;;3.80;;
22284;SDS011;11311;52.192;20.900;2023-03-14T11:01:02;5.30;;;3.70;;
22284;SDS011;11311;52.192;20.900;2023-03-14T11:03:36;5.55;;;3.53;;
22284;SDS011;11311;52.192;20.900;2023-03-14T11:06:09;5.95;;;3.75;;
22284;SDS011;11311;52.192;20.900;2023-03-14T11:08:43;6.97;;;3.50;;
22284;SDS011;11311;52.192;20.900;2023-03-14T11:11:16;6.10;;;3.65;;
22284;SDS011;11311;52.192;20.900;2023-03-14T11:13:54;7.45;;;3.65;;
22284;SDS011;11311;52.192;20.900;2023-03-14T11:16:31;6.45;;;3.53;;
22284;SDS011;11311;52.192;20.900;2023-03-14T11:19:14;9.05;;;3.97;;
22284;SDS011;11311;52.192;20.900;2023-03-14T11:21:51;7.43;;;4.25;;
22284;SDS011;11311;52.192;20.900;2023-03-14T11:24:26;5.90;;;3.88;;
22284;SDS011;11311;52.192;20.900;2023-03-14T11:27:03;6.43;;;3.97;;
22284;SDS011;11311;52.192;20.900;2023-03-14T11:29:37;12.30;;;4.78;;
22284;SDS011;11311;52.192;20.900;2023-03-14T11:32:11;5.43;;;3.55;;
22284;SDS011;11311;52.192;20.900;2023-03-14T11:34:43;13.07;;;4.45;;
22284;SDS011;11311;52.192;20.900;2023-03-14T11:37:20;8.77;;;4.45;;
22284;SDS011;11311;52.192;20.900;2023-03-14T11:39:54;6.75;;;4.20;;
22284;SDS011;11311;52.192;20.900;2023-03-14T11:42:28;5.35;;;3.80;;
22284;SDS011;11311;52.192;20.900;2023-03-14T11:47:28;8.10;;;3.95;;
22284;SDS011;11311;52.192;20.900;2023-03-14T11:49:59;6.05;;;4.22;;
22284;SDS011;11311;52.192;20.900;2023-03-14T11:52:34;7.45;;;4.20;;
22284;SDS011;11311;52.192;20.900;2023-03-14T11:55:07;6.80;;;4.10;;
22284;SDS011;11311;52.192;20.900;2023-03-14T11:57:39;6.82;;;3.75;;
22284;SDS011;11311;52.192;20.900;2023-03-14T12:00:13;7.38;;;4.75;;
22284;SDS011;11311;52.192;20.900;2023-03-14T12:02:47;7.07;;;4.50;;
22284;SDS011;11311;52.192;20.900;2023-03-14T12:11:18;7.18;;;4.45;;
22284;SDS011;11311;52.192;20.900;2023-03-14T12:13:49;11.80;;;5.47;;
22284;SDS011;11311;52.192;20.900;2023-03-14T12:18:56;9.65;;;4.68;;
22284;SDS011;11311;52.192;20.900;2023-03-14T12:21:34;8.80;;;4.82;;
22284;SDS011;11311;52.192;20.900;2023-03-14T12:24:16;9.27;;;5.15;;
22284;SDS011;11311;52.192;20.900;2023-03-14T12:26:51;10.18;;;4.88;;
22284;SDS011;11311;52.192;20.900;2023-03-14T12:29:21;8.50;;;5.32;;
22284;SDS011;11311;52.192;20.900;2023-03-14T12:32:05;6.70;;;5.10;;
22284;SDS011;11311;52.192;20.900;2023-03-14T12:34:39;10.05;;;5.30;;
22284;SDS011;11311;52.192;20.900;2023-03-14T12:37:15;9.82;;;4.45;;
22284;SDS011;11311;52.192;20.900;2023-03-14T12:39:51;9.52;;;5.72;;
22284;SDS011;11311;52.192;20.900;2023-03-14T12:42:37;10.35;;;6.47;;
22284;SDS011;11311;52.192;20.900;2023-03-14T12:48:08;8.05;;;6.13;;
22284;SDS011;11311;52.192;20.900;2023-03-14T12:50:40;14.93;;;6.00;;
22284;SDS011;11311;52.192;20.900;2023-03-14T12:56:37;7.78;;;4.97;;
22284;SDS011;11311;52.192;20.900;2023-03-14T12:59:28;9.18;;;4.95;;
22284;SDS011;11311;52.192;20.900;2023-03-14T13:02:17;14.13;;;6.22;;
22284;SDS011;11311;52.192;20.900;2023-03-14T13:04:51;10.18;;;5.65;;
22284;SDS011;11311;52.192;20.900;2023-03-14T13:10:38;10.80;;;6.15;;
22284;SDS011;11311;52.192;20.900;2023-03-14T13:13:14;9.52;;;5.40;;
22284;SDS011;11311;52.192;20.900;2023-03-14T13:15:53;12.02;;;5.95;;
22284;SDS011;11311;52.192;20.900;2023-03-14T13:18:27;9.60;;;5.78;;
22284;SDS011;11311;52.192;20.900;2023-03-14T13:21:01;11.55;;;6.10;;
22284;SDS011;11311;52.192;20.900;2023-03-14T13:23:32;9.70;;;5.68;;
22284;SDS011;11311;52.192;20.900;2023-03-14T13:28:30;10.18;;;5.88;;
22284;SDS011;11311;52.192;20.900;2023-03-14T13:31:02;13.90;;;5.95;;
22284;SDS011;11311;52.192;20.900;2023-03-14T13:33:32;10.57;;;6.63;;
22284;SDS011;11311;52.192;20.900;2023-03-14T13:36:02;13.57;;;6.40;;
22284;SDS011;11311;52.192;20.900;2023-03-14T13:38:33;13.85;;;7.40;;
22284;SDS011;11311;52.192;20.900;2023-03-14T13:41:04;12.80;;;6.78;;
22284;SDS011;11311;52.192;20.900;2023-03-14T13:43:35;12.45;;;6.28;;
22284;SDS011;11311;52.192;20.900;2023-03-14T13:48:38;10.00;;;6.90;;
22284;SDS011;11311;52.192;20.900;2023-03-14T13:51:10;13.68;;;7.22;;
22284;SDS011;11311;52.192;20.900;2023-03-14T13:53:44;12.52;;;6.70;;
22284;SDS011;11311;52.192;20.900;2023-03-14T13:56:14;25.35;;;8.40;;
22284;SDS011;11311;52.192;20.900;2023-03-14T13:58:43;11.17;;;6.20;;
22284;SDS011;11311;52.192;20.900;2023-03-14T14:01:15;12.88;;;7.20;;
22284;SDS011;11311;52.192;20.900;2023-03-14T14:03:46;11.48;;;7.03;;
22284;SDS011;11311;52.192;20.900;2023-03-14T14:09:10;8.68;;;6.25;;
22284;SDS011;11311;52.192;20.900;2023-03-14T14:11:41;13.55;;;7.13;;
22284;SDS011;11311;52.192;20.900;2023-03-14T14:14:30;13.95;;;6.32;;
22284;SDS011;11311;52.192;20.900;2023-03-14T14:17:03;13.25;;;7.07;;
22284;SDS011;11311;52.192;20.900;2023-03-14T14:19:34;12.40;;;6.80;;
22284;SDS011;11311;52.192;20.900;2023-03-14T14:24:34;12.60;;;7.00;;
22284;SDS011;11311;52.192;20.900;2023-03-14T14:27:08;12.52;;;5.60;;
22284;SDS011;11311;52.192;20.900;2023-03-14T14:29:40;7.25;;;5.13;;
22284;SDS011;11311;52.192;20.900;2023-03-14T14:32:12;15.40;;;5.07;;
22284;SDS011;11311;52.192;20.900;2023-03-14T14:34:43;10.93;;;5.85;;
22284;SDS011;11311;52.192;20.900;2023-03-14T14:37:19;11.40;;;6.43;;
22284;SDS011;11311;52.192;20.900;2023-03-14T14:39:53;8.07;;;5.65;;
22284;SDS011;11311;52.192;20.900;2023-03-14T14:42:26;13.20;;;6.22;;
22284;SDS011;11311;52.192;20.900;2023-03-14T14:44:56;9.02;;;5.45;;
22284;SDS011;11311;52.192;20.900;2023-03-14T14:47:28;10.35;;;6.05;;
22284;SDS011;11311;52.192;20.900;2023-03-14T14:49:58;7.93;;;5.97;;
22284;SDS011;11311;52.192;20.900;2023-03-14T14:52:34;9.68;;;6.50;;
22284;SDS011;11311;52.192;20.900;2023-03-14T14:55:13;16.90;;;5.60;;
22284;SDS011;11311;52.192;20.900;2023-03-14T14:57:49;9.15;;;5.20;;
22284;SDS011;11311;52.192;20.900;2023-03-14T15:00:20;8.18;;;6.57;;
22284;SDS011;11311;52.192;20.900;2023-03-14T15:02:53;8.98;;;5.78;;
22284;SDS011;11311;52.192;20.900;2023-03-14T15:05:24;11.02;;;6.65;;
22284;SDS011;11311;52.192;20.900;2023-03-14T15:07:53;14.13;;;7.38;;
22284;SDS011;11311;52.192;20.900;2023-03-14T15:10:23;9.98;;;6.75;;
22284;SDS011;11311;52.192;20.900;2023-03-14T15:12:53;14.50;;;7.57;;
22284;SDS011;11311;52.192;20.900;2023-03-14T15:15:22;8.13;;;5.97;;
22284;SDS011;11311;52.192;20.900;2023-03-14T15:17:52;8.05;;;5.60;;
22284;SDS011;11311;52.192;20.900;2023-03-14T15:22:50;9.27;;;5.28;;
22284;SDS011;11311;52.192;20.900;2023-03-14T15:25:19;10.30;;;7.72;;
22284;SDS011;11311;52.192;20.900;2023-03-14T15:28:11;10.45;;;6.40;;
22284;SDS011;11311;52.192;20.900;2023-03-14T15:30:49;12.13;;;7.70;;
22284;SDS011;11311;52.192;20.900;2023-03-14T15:33:20;12.35;;;8.02;;
22284;SDS011;11311;52.192;20.900;2023-03-14T15:35:50;12.13;;;5.97;;
22284;SDS011;11311;52.192;20.900;2023-03-14T15:38:20;8.75;;;6.80;;
22284;SDS011;11311;52.192;20.900;2023-03-14T15:43:18;12.63;;;6.43;;
22284;SDS011;11311;52.192;20.900;2023-03-14T15:45:48;15.95;;;9.48;;
22284;SDS011;11311;52.192;20.900;2023-03-14T15:48:18;21.40;;;9.97;;
22284;SDS011;11311;52.192;20.900;2023-03-14T15:50:50;12.65;;;8.48;;
22284;SDS011;11311;52.192;20.900;2023-03-14T15:53:19;16.63;;;9.98;;
22284;SDS011;11311;52.192;20.900;2023-03-14T15:55:48;15.65;;;9.77;;
22284;SDS011;11311;52.192;20.900;2023-03-14T15:58:18;15.50;;;7.35;;
22284;SDS011;11311;52.192;20.900;2023-03-14T16:00:48;16.45;;;8.15;;
22284;SDS011;11311;52.192;20.900;2023-03-14T16:03:17;9.52;;;6.95;;